sensor_id;sensor_type;location;lat;lon;timestamp;P1;durP1;ratioP1;P2;durP2;ratioP2
11681;SDS011;5897;42.640;23.310;2022-09-17T00:01:14;4.10;;;2.35;;
11681;SDS011;5897;42.640;23.310;2022-09-17T00:03:43;6.05;;;2.10;;
11681;SDS011;5897;42.640;23.310;2022-09-17T00:06:13;5.53;;;2.10;;
11681;SDS011;5897;42.640;23.310;2022-09-17T00:08:40;6.50;;;2.15;;
11681;SDS011;5897;42.640;23.310;2022-09-17T00:11:07;4.07;;;2.47;;
11681;SDS011;5897;42.640;23.310;2022-09-17T00:13:35;5.88;;;2.30;;
11681;SDS011;5897;42.640;23.310;2022-09-17T00:16:02;7.68;;;1.83;;
11681;SDS011;5897;42.640;23.310;2022-09-17T00:18:29;4.13;;;2.05;;
11681;SDS011;5897;42.640;23.310;2022-09-17T00:20:57;6.85;;;2.38;;
11681;SDS011;5897;42.640;23.310;2022-09-17T00:23:24;4.93;;;2.00;;
11681;SDS011;5897;42.640;23.310;2022-09-17T00:25:51;3.88;;;1.98;;
11681;SDS011;5897;42.640;23.310;2022-09-17T00:28:18;3.22;;;1.70;;
11681;SDS011;5897;42.640;23.310;2022-09-17T00:30:45;6.32;;;2.40;;
11681;SDS011;5897;42.640;23.310;2022-09-17T00:33:12;4.35;;;2.33;;
11681;SDS011;5897;42.640;23.310;2022-09-17T00:35:40;4.95;;;2.13;;
11681;SDS011;5897;42.640;23.310;2022-09-17T00:38:08;6.88;;;3.17;;
11681;SDS011;5897;42.640;23.310;2022-09-17T00:40:36;5.35;;;2.33;;
11681;SDS011;5897;42.640;23.310;2022-09-17T00:43:03;6.07;;;2.40;;
11681;SDS011;5897;42.640;23.310;2022-09-17T00:45:29;6.65;;;2.80;;
11681;SDS011;5897;42.640;23.310;2022-09-17T00:47:57;3.67;;;2.80;;
11681;SDS011;5897;42.640;23.310;2022-09-17T00:50:26;6.50;;;3.08;;
11681;SDS011;5897;42.640;23.310;2022-09-17T00:52:55;7.32;;;3.72;;
11681;SDS011;5897;42.640;23.310;2022-09-17T00:55:27;6.75;;;3.38;;
11681;SDS011;5897;42.640;23.310;2022-09-17T00:57:57;6.10;;;3.33;;
11681;SDS011;5897;42.640;23.310;2022-09-17T01:00:27;9.05;;;3.30;;
11681;SDS011;5897;42.640;23.310;2022-09-17T01:02:55;5.85;;;3.78;;
11681;SDS011;5897;42.640;23.310;2022-09-17T01:05:24;6.78;;;3.92;;
11681;SDS011;5897;42.640;23.310;2022-09-17T01:08:01;8.35;;;3.80;;
11681;SDS011;5897;42.640;23.310;2022-09-17T01:10:47;5.13;;;3.90;;
11681;SDS011;5897;42.640;23.310;2022-09-17T01:13:29;8.32;;;3.60;;
11681;SDS011;5897;42.640;23.310;2022-09-17T01:16:04;6.28;;;3.83;;
11681;SDS011;5897;42.640;23.310;2022-09-17T01:18:38;6.18;;;3.35;;
11681;SDS011;5897;42.640;23.310;2022-09-17T01:21:33;5.65;;;3.90;;
11681;SDS011;5897;42.640;23.310;2022-09-17T01:30:35;7.68;;;4.20;;
11681;SDS011;5897;42.640;23.310;2022-09-17T01:33:21;5.32;;;3.80;;
11681;SDS011;5897;42.640;23.310;2022-09-17T01:35:57;11.15;;;4.47;;
11681;SDS011;5897;42.640;23.310;2022-09-17T01:38:39;7.07;;;5.10;;
11681;SDS011;5897;42.640;23.310;2022-09-17T01:41:15;8.45;;;5.50;;
11681;SDS011;5897;42.640;23.310;2022-09-17T01:43:50;10.13;;;5.78;;
11681;SDS011;5897;42.640;23.310;2022-09-17T01:46:26;12.13;;;5.97;;
11681;SDS011;5897;42.640;23.310;2022-09-17T01:48:58;9.30;;;6.10;;
11681;SDS011;5897;42.640;23.310;2022-09-17T01:51:28;10.32;;;7.00;;
11681;SDS011;5897;42.640;23.310;2022-09-17T01:54:03;10.60;;;6.82;;
11681;SDS011;5897;42.640;23.310;2022-09-17T01:56:34;8.85;;;6.20;;
11681;SDS011;5897;42.640;23.310;2022-09-17T01:59:05;9.60;;;5.50;;
11681;SDS011;5897;42.640;23.310;2022-09-17T02:01:38;12.77;;;6.00;;
11681;SDS011;5897;42.640;23.310;2022-09-17T02:04:09;10.52;;;6.38;;
11681;SDS011;5897;42.640;23.310;2022-09-17T02:06:44;10.13;;;6.28;;
11681;SDS011;5897;42.640;23.310;2022-09-17T02:09:16;8.82;;;5.95;;
11681;SDS011;5897;42.640;23.310;2022-09-17T02:11:48;8.75;;;5.55;;
11681;SDS011;5897;42.640;23.310;2022-09-17T02:14:21;11.68;;;6.63;;
11681;SDS011;5897;42.640;23.310;2022-09-17T02:16:55;8.70;;;6.25;;
11681;SDS011;5897;42.640;23.310;2022-09-17T02:19:29;6.85;;;3.03;;
11681;SDS011;5897;42.640;23.310;2022-09-17T02:22:00;12.13;;;2.30;;
11681;SDS011;5897;42.640;23.310;2022-09-17T02:24:32;10.30;;;2.53;;
11681;SDS011;5897;42.640;23.310;2022-09-17T02:27:04;10.18;;;3.13;;
11681;SDS011;5897;42.640;23.310;2022-09-17T02:29:37;8.10;;;2.65;;
11681;SDS011;5897;42.640;23.310;2022-09-17T02:32:07;12.68;;;2.17;;
11681;SDS011;5897;42.640;23.310;2022-09-17T02:34:34;9.00;;;2.10;;
11681;SDS011;5897;42.640;23.310;2022-09-17T02:37:01;5.32;;;2.30;;
11681;SDS011;5897;42.640;23.310;2022-09-17T02:39:29;6.95;;;2.60;;
11681;SDS011;5897;42.640;23.310;2022-09-17T02:41:58;6.22;;;2.70;;
11681;SDS011;5897;42.640;23.310;2022-09-17T02:44:41;8.00;;;3.72;;
11681;SDS011;5897;42.640;23.310;2022-09-17T02:50:17;6.57;;;4.32;;
11681;SDS011;5897;42.640;23.310;2022-09-17T02:53:10;8.20;;;4.20;;
11681;SDS011;5897;42.640;23.310;2022-09-17T02:55:56;9.35;;;4.72;;
11681;SDS011;5897;42.640;23.310;2022-09-17T02:58:28;8.07;;;4.50;;
11681;SDS011;5897;42.640;23.310;2022-09-17T03:01:01;8.20;;;4.15;;
11681;SDS011;5897;42.640;23.310;2022-09-17T03:03:33;7.97;;;4.20;;
11681;SDS011;5897;42.640;23.310;2022-09-17T03:06:04;6.10;;;4.20;;
11681;SDS011;5897;42.640;23.310;2022-09-17T03:08:32;8.32;;;4.28;;
11681;SDS011;5897;42.640;23.310;2022-09-17T03:11:01;7.40;;;4.47;;
11681;SDS011;5897;42.640;23.310;2022-09-17T03:13:28;6.47;;;4.75;;
11681;SDS011;5897;42.640;23.310;2022-09-17T03:15:55;5.80;;;4.35;;
11681;SDS011;5897;42.640;23.310;2022-09-17T03:18:22;8.30;;;4.20;;
11681;SDS011;5897;42.640;23.310;2022-09-17T03:20:50;6.78;;;4.47;;
11681;SDS011;5897;42.640;23.310;2022-09-17T03:23:17;7.00;;;4.55;;
11681;SDS011;5897;42.640;23.310;2022-09-17T03:25:44;6.32;;;4.88;;
11681;SDS011;5897;42.640;23.310;2022-09-17T03:28:12;8.57;;;4.70;;
11681;SDS011;5897;42.640;23.310;2022-09-17T03:30:38;6.45;;;4.38;;
11681;SDS011;5897;42.640;23.310;2022-09-17T03:33:05;6.63;;;3.78;;
11681;SDS011;5897;42.640;23.310;2022-09-17T03:35:32;7.13;;;3.30;;
11681;SDS011;5897;42.640;23.310;2022-09-17T03:38:00;4.35;;;2.75;;
11681;SDS011;5897;42.640;23.310;2022-09-17T03:40:27;5.18;;;2.60;;
11681;SDS011;5897;42.640;23.310;2022-09-17T03:42:54;4.18;;;2.50;;
11681;SDS011;5897;42.640;23.310;2022-09-17T03:45:21;5.70;;;2.35;;
11681;SDS011;5897;42.640;23.310;2022-09-17T03:47:47;3.72;;;2.33;;
11681;SDS011;5897;42.640;23.310;2022-09-17T03:50:14;6.57;;;2.08;;
11681;SDS011;5897;42.640;23.310;2022-09-17T03:52:41;4.18;;;2.13;;
11681;SDS011;5897;42.640;23.310;2022-09-17T03:55:10;6.63;;;3.17;;
11681;SDS011;5897;42.640;23.310;2022-09-17T03:57:36;5.07;;;2.70;;
11681;SDS011;5897;42.640;23.310;2022-09-17T04:00:03;5.47;;;2.13;;
11681;SDS011;5897;42.640;23.310;2022-09-17T04:02:31;5.43;;;2.17;;
11681;SDS011;5897;42.640;23.310;2022-09-17T04:04:58;5.40;;;2.08;;
11681;SDS011;5897;42.640;23.310;2022-09-17T04:07:25;5.63;;;2.50;;
11681;SDS011;5897;42.640;23.310;2022-09-17T04:09:52;5.28;;;1.92;;
11681;SDS011;5897;42.640;23.310;2022-09-17T04:12:20;4.85;;;1.90;;
11681;SDS011;5897;42.640;23.310;2022-09-17T04:14:47;4.70;;;2.10;;
11681;SDS011;5897;42.640;23.310;2022-09-17T04:17:13;4.45;;;2.17;;
11681;SDS011;5897;42.640;23.310;2022-09-17T04:19:42;4.90;;;1.88;;
11681;SDS011;5897;42.640;23.310;2022-09-17T04:22:09;6.10;;;2.00;;
11681;SDS011;5897;42.640;23.310;2022-09-17T04:24:36;7.90;;;2.97;;
11681;SDS011;5897;42.640;23.310;2022-09-17T04:27:02;6.10;;;2.13;;
11681;SDS011;5897;42.640;23.310;2022-09-17T04:29:30;5.00;;;2.00;;
11681;SDS011;5897;42.640;23.310;2022-09-17T04:31:57;5.32;;;2.40;;
11681;SDS011;5897;42.640;23.310;2022-09-17T04:34:24;5.35;;;2.80;;
11681;SDS011;5897;42.640;23.310;2022-09-17T04:36:50;6.88;;;2.67;;
11681;SDS011;5897;42.640;23.310;2022-09-17T04:39:17;6.25;;;2.47;;
11681;SDS011;5897;42.640;23.310;2022-09-17T04:41:44;6.28;;;2.28;;
11681;SDS011;5897;42.640;23.310;2022-09-17T04:44:11;6.70;;;2.72;;
11681;SDS011;5897;42.640;23.310;2022-09-17T04:46:39;5.72;;;2.53;;
11681;SDS011;5897;42.640;23.310;2022-09-17T04:49:06;6.03;;;3.08;;
11681;SDS011;5897;42.640;23.310;2022-09-17T04:51:32;6.38;;;2.90;;
11681;SDS011;5897;42.640;23.310;2022-09-17T04:53:59;7.13;;;3.10;;
11681;SDS011;5897;42.640;23.310;2022-09-17T04:56:26;5.05;;;3.10;;
11681;SDS011;5897;42.640;23.310;2022-09-17T04:58:53;8.90;;;3.40;;
11681;SDS011;5897;42.640;23.310;2022-09-17T05:01:20;8.00;;;3.83;;
11681;SDS011;5897;42.640;23.310;2022-09-17T05:03:48;9.38;;;2.80;;
11681;SDS011;5897;42.640;23.310;2022-09-17T05:06:15;6.97;;;2.45;;
11681;SDS011;5897;42.640;23.310;2022-09-17T05:08:41;6.07;;;2.22;;
11681;SDS011;5897;42.640;23.310;2022-09-17T05:11:08;7.32;;;2.17;;
11681;SDS011;5897;42.640;23.310;2022-09-17T05:13:35;6.35;;;1.90;;
11681;SDS011;5897;42.640;23.310;2022-09-17T05:16:02;6.82;;;2.40;;
11681;SDS011;5897;42.640;23.310;2022-09-17T05:18:29;6.93;;;3.20;;
11681;SDS011;5897;42.640;23.310;2022-09-17T05:20:57;5.63;;;3.42;;
11681;SDS011;5897;42.640;23.310;2022-09-17T05:23:23;6.50;;;3.20;;
11681;SDS011;5897;42.640;23.310;2022-09-17T05:25:50;8.73;;;3.80;;
11681;SDS011;5897;42.640;23.310;2022-09-17T05:28:18;6.90;;;3.20;;
11681;SDS011;5897;42.640;23.310;2022-09-17T05:30:44;10.98;;;3.55;;
11681;SDS011;5897;42.640;23.310;2022-09-17T05:33:11;9.93;;;3.47;;
11681;SDS011;5897;42.640;23.310;2022-09-17T05:35:38;4.93;;;3.13;;
11681;SDS011;5897;42.640;23.310;2022-09-17T05:38:06;6.82;;;3.03;;
11681;SDS011;5897;42.640;23.310;2022-09-17T05:40:33;4.60;;;2.20;;
11681;SDS011;5897;42.640;23.310;2022-09-17T05:43:02;3.10;;;1.27;;
11681;SDS011;5897;42.640;23.310;2022-09-17T05:45:31;2.83;;;1.23;;
11681;SDS011;5897;42.640;23.310;2022-09-17T05:47:59;2.92;;;0.82;;
11681;SDS011;5897;42.640;23.310;2022-09-17T05:50:27;3.22;;;1.02;;
11681;SDS011;5897;42.640;23.310;2022-09-17T05:52:55;1.85;;;1.10;;
11681;SDS011;5897;42.640;23.310;2022-09-17T05:55:23;3.28;;;1.00;;
11681;SDS011;5897;42.640;23.310;2022-09-17T05:57:51;3.40;;;0.90;;
11681;SDS011;5897;42.640;23.310;2022-09-17T06:00:18;3.42;;;1.00;;
11681;SDS011;5897;42.640;23.310;2022-09-17T06:02:45;4.25;;;1.02;;
11681;SDS011;5897;42.640;23.310;2022-09-17T06:05:12;3.70;;;0.70;;
11681;SDS011;5897;42.640;23.310;2022-09-17T06:07:38;3.08;;;1.00;;
11681;SDS011;5897;42.640;23.310;2022-09-17T06:10:05;2.22;;;0.85;;
11681;SDS011;5897;42.640;23.310;2022-09-17T06:12:34;4.70;;;1.13;;
11681;SDS011;5897;42.640;23.310;2022-09-17T06:15:01;2.60;;;0.80;;
11681;SDS011;5897;42.640;23.310;2022-09-17T06:17:31;1.58;;;0.80;;
11681;SDS011;5897;42.640;23.310;2022-09-17T06:19:58;1.70;;;0.82;;
11681;SDS011;5897;42.640;23.310;2022-09-17T06:22:25;3.47;;;1.00;;
11681;SDS011;5897;42.640;23.310;2022-09-17T06:24:52;2.95;;;0.80;;
11681;SDS011;5897;42.640;23.310;2022-09-17T06:27:19;2.45;;;0.90;;
11681;SDS011;5897;42.640;23.310;2022-09-17T06:29:47;7.40;;;2.08;;
11681;SDS011;5897;42.640;23.310;2022-09-17T06:32:13;4.95;;;2.63;;
11681;SDS011;5897;42.640;23.310;2022-09-17T06:34:41;8.00;;;3.00;;
11681;SDS011;5897;42.640;23.310;2022-09-17T06:37:08;9.27;;;3.33;;
11681;SDS011;5897;42.640;23.310;2022-09-17T06:39:34;6.25;;;3.00;;
11681;SDS011;5897;42.640;23.310;2022-09-17T06:42:01;5.72;;;3.03;;
11681;SDS011;5897;42.640;23.310;2022-09-17T06:44:28;5.57;;;2.67;;
11681;SDS011;5897;42.640;23.310;2022-09-17T06:46:56;8.52;;;2.35;;
11681;SDS011;5897;42.640;23.310;2022-09-17T06:49:23;5.15;;;1.95;;
11681;SDS011;5897;42.640;23.310;2022-09-17T06:51:49;6.00;;;3.03;;
11681;SDS011;5897;42.640;23.310;2022-09-17T06:54:16;8.07;;;4.07;;
11681;SDS011;5897;42.640;23.310;2022-09-17T06:56:44;8.75;;;4.03;;
11681;SDS011;5897;42.640;23.310;2022-09-17T06:59:11;8.32;;;4.60;;
11681;SDS011;5897;42.640;23.310;2022-09-17T07:01:38;10.23;;;5.03;;
11681;SDS011;5897;42.640;23.310;2022-09-17T07:04:06;10.73;;;4.75;;
11681;SDS011;5897;42.640;23.310;2022-09-17T07:06:32;9.77;;;4.38;;
11681;SDS011;5897;42.640;23.310;2022-09-17T07:08:59;10.73;;;4.72;;
11681;SDS011;5897;42.640;23.310;2022-09-17T07:11:28;11.38;;;4.47;;
11681;SDS011;5897;42.640;23.310;2022-09-17T07:13:55;10.38;;;5.07;;
11681;SDS011;5897;42.640;23.310;2022-09-17T07:16:22;5.40;;;3.58;;
11681;SDS011;5897;42.640;23.310;2022-09-17T07:18:48;6.78;;;5.00;;
11681;SDS011;5897;42.640;23.310;2022-09-17T07:21:16;9.52;;;4.28;;
11681;SDS011;5897;42.640;23.310;2022-09-17T07:23:43;9.65;;;4.43;;
11681;SDS011;5897;42.640;23.310;2022-09-17T07:26:11;8.52;;;4.50;;
11681;SDS011;5897;42.640;23.310;2022-09-17T07:28:39;10.70;;;4.53;;
11681;SDS011;5897;42.640;23.310;2022-09-17T07:31:08;9.60;;;3.88;;
11681;SDS011;5897;42.640;23.310;2022-09-17T07:33:35;7.95;;;3.40;;
11681;SDS011;5897;42.640;23.310;2022-09-17T07:36:04;5.35;;;3.15;;
11681;SDS011;5897;42.640;23.310;2022-09-17T07:38:33;7.68;;;2.80;;
11681;SDS011;5897;42.640;23.310;2022-09-17T07:41:01;5.93;;;2.47;;
11681;SDS011;5897;42.640;23.310;2022-09-17T07:43:29;6.95;;;2.75;;
11681;SDS011;5897;42.640;23.310;2022-09-17T07:45:57;8.20;;;2.33;;
11681;SDS011;5897;42.640;23.310;2022-09-17T07:48:24;6.00;;;2.80;;
11681;SDS011;5897;42.640;23.310;2022-09-17T07:50:52;7.32;;;3.08;;
11681;SDS011;5897;42.640;23.310;2022-09-17T07:53:19;9.98;;;3.10;;
11681;SDS011;5897;42.640;23.310;2022-09-17T07:55:51;10.60;;;3.47;;
11681;SDS011;5897;42.640;23.310;2022-09-17T07:58:18;9.82;;;4.05;;
11681;SDS011;5897;42.640;23.310;2022-09-17T08:00:45;9.77;;;3.42;;
11681;SDS011;5897;42.640;23.310;2022-09-17T08:03:12;8.90;;;3.45;;
11681;SDS011;5897;42.640;23.310;2022-09-17T08:05:39;9.18;;;3.95;;
11681;SDS011;5897;42.640;23.310;2022-09-17T08:08:05;8.48;;;3.92;;
11681;SDS011;5897;42.640;23.310;2022-09-17T08:10:32;9.50;;;3.60;;
11681;SDS011;5897;42.640;23.310;2022-09-17T08:13:01;10.60;;;4.03;;
11681;SDS011;5897;42.640;23.310;2022-09-17T08:15:28;6.72;;;3.88;;
11681;SDS011;5897;42.640;23.310;2022-09-17T08:17:55;9.27;;;4.18;;
11681;SDS011;5897;42.640;23.310;2022-09-17T08:20:22;9.85;;;4.43;;
11681;SDS011;5897;42.640;23.310;2022-09-17T08:22:56;11.68;;;4.05;;
11681;SDS011;5897;42.640;23.310;2022-09-17T08:25:24;9.23;;;4.05;;
11681;SDS011;5897;42.640;23.310;2022-09-17T08:27:52;10.30;;;3.47;;
11681;SDS011;5897;42.640;23.310;2022-09-17T08:30:21;5.90;;;3.20;;
11681;SDS011;5897;42.640;23.310;2022-09-17T08:32:48;7.57;;;2.65;;
11681;SDS011;5897;42.640;23.310;2022-09-17T08:35:14;9.77;;;2.90;;
11681;SDS011;5897;42.640;23.310;2022-09-17T08:37:42;5.60;;;2.30;;
11681;SDS011;5897;42.640;23.310;2022-09-17T08:40:08;6.72;;;2.53;;
11681;SDS011;5897;42.640;23.310;2022-09-17T08:42:40;5.80;;;2.22;;
11681;SDS011;5897;42.640;23.310;2022-09-17T08:45:15;4.10;;;2.08;;
11681;SDS011;5897;42.640;23.310;2022-09-17T08:47:45;7.03;;;2.50;;
11681;SDS011;5897;42.640;23.310;2022-09-17T08:50:13;5.63;;;2.00;;
11681;SDS011;5897;42.640;23.310;2022-09-17T08:53:04;7.10;;;2.25;;
11681;SDS011;5897;42.640;23.310;2022-09-17T08:55:49;4.03;;;1.95;;
11681;SDS011;5897;42.640;23.310;2022-09-17T08:58:25;7.22;;;2.35;;
11681;SDS011;5897;42.640;23.310;2022-09-17T09:01:19;4.25;;;2.28;;
11681;SDS011;5897;42.640;23.310;2022-09-17T09:07:19;9.18;;;2.55;;
11681;SDS011;5897;42.640;23.310;2022-09-17T09:09:50;7.20;;;2.17;;
11681;SDS011;5897;42.640;23.310;2022-09-17T09:12:30;8.05;;;2.75;;
11681;SDS011;5897;42.640;23.310;2022-09-17T09:14:59;7.35;;;2.78;;
11681;SDS011;5897;42.640;23.310;2022-09-17T09:17:31;7.07;;;2.65;;
11681;SDS011;5897;42.640;23.310;2022-09-17T09:20:02;3.85;;;2.25;;
11681;SDS011;5897;42.640;23.310;2022-09-17T09:22:37;4.90;;;2.60;;
11681;SDS011;5897;42.640;23.310;2022-09-17T09:25:18;9.88;;;2.47;;
11681;SDS011;5897;42.640;23.310;2022-09-17T09:27:55;6.57;;;2.45;;
11681;SDS011;5897;42.640;23.310;2022-09-17T09:30:35;4.63;;;2.28;;
11681;SDS011;5897;42.640;23.310;2022-09-17T09:33:14;6.38;;;2.72;;
11681;SDS011;5897;42.640;23.310;2022-09-17T09:35:45;4.50;;;2.90;;
11681;SDS011;5897;42.640;23.310;2022-09-17T09:38:14;5.57;;;2.78;;
11681;SDS011;5897;42.640;23.310;2022-09-17T09:40:53;4.85;;;2.58;;
11681;SDS011;5897;42.640;23.310;2022-09-17T09:43:28;8.82;;;3.15;;
11681;SDS011;5897;42.640;23.310;2022-09-17T09:46:05;6.10;;;3.00;;
11681;SDS011;5897;42.640;23.310;2022-09-17T09:48:43;7.30;;;3.38;;
11681;SDS011;5897;42.640;23.310;2022-09-17T09:51:24;7.63;;;3.55;;
11681;SDS011;5897;42.640;23.310;2022-09-17T09:54:04;8.23;;;4.13;;
11681;SDS011;5897;42.640;23.310;2022-09-17T09:56:49;10.80;;;4.28;;
11681;SDS011;5897;42.640;23.310;2022-09-17T09:59:21;8.70;;;4.47;;
11681;SDS011;5897;42.640;23.310;2022-09-17T10:01:48;8.57;;;5.07;;
11681;SDS011;5897;42.640;23.310;2022-09-17T10:04:17;8.27;;;4.00;;
11681;SDS011;5897;42.640;23.310;2022-09-17T10:06:47;9.57;;;4.55;;
11681;SDS011;5897;42.640;23.310;2022-09-17T10:09:16;8.77;;;4.38;;
11681;SDS011;5897;42.640;23.310;2022-09-17T10:11:57;7.85;;;4.47;;
11681;SDS011;5897;42.640;23.310;2022-09-17T10:14:27;8.98;;;3.95;;
11681;SDS011;5897;42.640;23.310;2022-09-17T10:17:10;9.15;;;4.50;;
11681;SDS011;5897;42.640;23.310;2022-09-17T10:19:41;6.47;;;3.80;;
11681;SDS011;5897;42.640;23.310;2022-09-17T10:22:21;6.07;;;2.17;;
11681;SDS011;5897;42.640;23.310;2022-09-17T10:24:52;6.03;;;2.83;;
11681;SDS011;5897;42.640;23.310;2022-09-17T10:27:21;6.20;;;3.75;;
11681;SDS011;5897;42.640;23.310;2022-09-17T10:29:50;7.32;;;3.30;;
11681;SDS011;5897;42.640;23.310;2022-09-17T10:32:23;8.15;;;3.67;;
11681;SDS011;5897;42.640;23.310;2022-09-17T10:35:00;7.25;;;3.00;;
11681;SDS011;5897;42.640;23.310;2022-09-17T10:37:42;6.45;;;3.60;;
11681;SDS011;5897;42.640;23.310;2022-09-17T10:43:16;2.15;;;0.80;;
11681;SDS011;5897;42.640;23.310;2022-09-17T10:45:53;2.83;;;1.40;;
11681;SDS011;5897;42.640;23.310;2022-09-17T10:48:23;1.63;;;1.02;;
11681;SDS011;5897;42.640;23.310;2022-09-17T10:50:54;9.05;;;3.00;;
11681;SDS011;5897;42.640;23.310;2022-09-17T10:53:23;5.05;;;2.60;;
11681;SDS011;5897;42.640;23.310;2022-09-17T10:55:53;6.68;;;2.75;;
11681;SDS011;5897;42.640;23.310;2022-09-17T10:58:30;5.97;;;3.35;;
11681;SDS011;5897;42.640;23.310;2022-09-17T11:01:09;6.78;;;4.30;;
11681;SDS011;5897;42.640;23.310;2022-09-17T11:03:50;7.10;;;4.45;;
11681;SDS011;5897;42.640;23.310;2022-09-17T11:06:36;6.68;;;3.72;;
11681;SDS011;5897;42.640;23.310;2022-09-17T11:09:19;9.18;;;3.25;;
11681;SDS011;5897;42.640;23.310;2022-09-17T11:11:58;5.18;;;3.42;;
11681;SDS011;5897;42.640;23.310;2022-09-17T11:14:46;5.80;;;4.70;;
11681;SDS011;5897;42.640;23.310;2022-09-17T11:17:24;8.13;;;3.97;;
11681;SDS011;5897;42.640;23.310;2022-09-17T11:20:02;5.70;;;3.60;;
11681;SDS011;5897;42.640;23.310;2022-09-17T11:22:46;6.60;;;4.30;;
11681;SDS011;5897;42.640;23.310;2022-09-17T11:25:33;6.57;;;3.58;;
11681;SDS011;5897;42.640;23.310;2022-09-17T11:28:12;5.57;;;3.13;;
11681;SDS011;5897;42.640;23.310;2022-09-17T11:30:53;4.65;;;3.13;;
11681;SDS011;5897;42.640;23.310;2022-09-17T11:33:34;5.68;;;3.00;;
11681;SDS011;5897;42.640;23.310;2022-09-17T11:36:10;6.47;;;2.92;;
11681;SDS011;5897;42.640;23.310;2022-09-17T11:38:41;4.28;;;2.83;;
11681;SDS011;5897;42.640;23.310;2022-09-17T11:41:15;5.50;;;2.70;;
11681;SDS011;5897;42.640;23.310;2022-09-17T11:43:46;6.75;;;2.90;;
11681;SDS011;5897;42.640;23.310;2022-09-17T11:46:17;6.43;;;3.47;;
11681;SDS011;5897;42.640;23.310;2022-09-17T11:48:51;8.45;;;3.97;;
11681;SDS011;5897;42.640;23.310;2022-09-17T11:51:26;5.25;;;3.15;;
11681;SDS011;5897;42.640;23.310;2022-09-17T11:53:58;7.22;;;4.00;;
11681;SDS011;5897;42.640;23.310;2022-09-17T11:56:34;6.85;;;3.97;;
11681;SDS011;5897;42.640;23.310;2022-09-17T11:59:04;6.68;;;3.80;;
11681;SDS011;5897;42.640;23.310;2022-09-17T12:01:43;6.05;;;3.10;;
11681;SDS011;5897;42.640;23.310;2022-09-17T12:04:26;4.97;;;2.40;;
11681;SDS011;5897;42.640;23.310;2022-09-17T12:07:01;0.43;;;0.40;;
11681;SDS011;5897;42.640;23.310;2022-09-17T12:09:37;0.60;;;0.57;;
11681;SDS011;5897;42.640;23.310;2022-09-17T12:12:11;0.47;;;0.30;;
11681;SDS011;5897;42.640;23.310;2022-09-17T12:14:43;0.98;;;0.73;;
11681;SDS011;5897;42.640;23.310;2022-09-17T12:17:17;1.20;;;0.60;;
11681;SDS011;5897;42.640;23.310;2022-09-17T12:19:49;0.85;;;0.50;;
11681;SDS011;5897;42.640;23.310;2022-09-17T12:22:20;1.27;;;0.70;;
11681;SDS011;5897;42.640;23.310;2022-09-17T12:24:49;4.10;;;1.20;;
11681;SDS011;5897;42.640;23.310;2022-09-17T12:27:21;1.40;;;1.10;;
11681;SDS011;5897;42.640;23.310;2022-09-17T12:30:04;1.10;;;0.90;;
11681;SDS011;5897;42.640;23.310;2022-09-17T12:36:02;1.83;;;0.57;;
11681;SDS011;5897;42.640;23.310;2022-09-17T12:41:50;1.10;;;0.43;;
11681;SDS011;5897;42.640;23.310;2022-09-17T12:44:45;0.65;;;0.57;;
11681;SDS011;5897;42.640;23.310;2022-09-17T12:50:36;0.40;;;0.38;;
11681;SDS011;5897;42.640;23.310;2022-09-17T12:53:20;0.63;;;0.50;;
11681;SDS011;5897;42.640;23.310;2022-09-17T12:55:56;0.50;;;0.43;;
11681;SDS011;5897;42.640;23.310;2022-09-17T12:58:36;2.20;;;0.50;;
11681;SDS011;5897;42.640;23.310;2022-09-17T13:01:18;1.25;;;0.70;;
11681;SDS011;5897;42.640;23.310;2022-09-17T13:03:49;0.40;;;0.40;;
11681;SDS011;5897;42.640;23.310;2022-09-17T13:06:33;0.60;;;0.47;;
11681;SDS011;5897;42.640;23.310;2022-09-17T13:09:31;0.40;;;0.40;;
11681;SDS011;5897;42.640;23.310;2022-09-17T13:12:15;1.48;;;0.50;;
11681;SDS011;5897;42.640;23.310;2022-09-17T13:14:59;1.20;;;0.50;;
11681;SDS011;5897;42.640;23.310;2022-09-17T13:17:48;2.80;;;0.52;;
11681;SDS011;5897;42.640;23.310;2022-09-17T13:20:20;1.00;;;0.47;;
11681;SDS011;5897;42.640;23.310;2022-09-17T13:22:51;0.93;;;0.50;;
11681;SDS011;5897;42.640;23.310;2022-09-17T13:25:21;0.45;;;0.30;;
11681;SDS011;5897;42.640;23.310;2022-09-17T13:27:49;0.30;;;0.30;;
11681;SDS011;5897;42.640;23.310;2022-09-17T13:30:32;1.45;;;0.45;;
11681;SDS011;5897;42.640;23.310;2022-09-17T13:36:34;0.73;;;0.30;;
11681;SDS011;5897;42.640;23.310;2022-09-17T13:39:02;1.55;;;0.45;;
11681;SDS011;5897;42.640;23.310;2022-09-17T13:41:31;1.85;;;0.50;;
11681;SDS011;5897;42.640;23.310;2022-09-17T13:44:01;0.90;;;0.50;;
11681;SDS011;5897;42.640;23.310;2022-09-17T13:46:29;0.68;;;0.32;;
11681;SDS011;5897;42.640;23.310;2022-09-17T13:49:00;0.73;;;0.40;;
11681;SDS011;5897;42.640;23.310;2022-09-17T13:54:23;1.63;;;0.40;;
11681;SDS011;5897;42.640;23.310;2022-09-17T13:57:04;1.48;;;0.60;;
11681;SDS011;5897;42.640;23.310;2022-09-17T13:59:37;0.68;;;0.47;;
11681;SDS011;5897;42.640;23.310;2022-09-17T14:10:56;1.88;;;0.30;;
11681;SDS011;5897;42.640;23.310;2022-09-17T14:13:37;0.40;;;0.40;;
11681;SDS011;5897;42.640;23.310;2022-09-17T14:22:09;0.40;;;0.40;;
11681;SDS011;5897;42.640;23.310;2022-09-17T14:24:45;0.68;;;0.50;;
11681;SDS011;5897;42.640;23.310;2022-09-17T14:27:20;1.55;;;0.52;;
11681;SDS011;5897;42.640;23.310;2022-09-17T14:30:09;2.20;;;0.70;;
11681;SDS011;5897;42.640;23.310;2022-09-17T14:32:39;3.45;;;1.10;;
11681;SDS011;5897;42.640;23.310;2022-09-17T14:35:14;3.75;;;1.30;;
11681;SDS011;5897;42.640;23.310;2022-09-17T14:37:47;3.70;;;1.45;;
11681;SDS011;5897;42.640;23.310;2022-09-17T14:40:19;3.67;;;2.03;;
11681;SDS011;5897;42.640;23.310;2022-09-17T14:42:48;2.85;;;1.60;;
11681;SDS011;5897;42.640;23.310;2022-09-17T14:45:20;2.85;;;2.00;;
11681;SDS011;5897;42.640;23.310;2022-09-17T14:51:16;3.55;;;1.80;;
11681;SDS011;5897;42.640;23.310;2022-09-17T14:56:38;6.70;;;1.77;;
11681;SDS011;5897;42.640;23.310;2022-09-17T14:59:15;4.25;;;2.30;;
11681;SDS011;5897;42.640;23.310;2022-09-17T15:01:47;3.65;;;2.08;;
11681;SDS011;5897;42.640;23.310;2022-09-17T15:04:19;5.55;;;2.25;;
11681;SDS011;5897;42.640;23.310;2022-09-17T15:06:46;4.25;;;1.60;;
11681;SDS011;5897;42.640;23.310;2022-09-17T15:09:15;4.07;;;1.95;;
11681;SDS011;5897;42.640;23.310;2022-09-17T15:11:43;7.90;;;1.77;;
11681;SDS011;5897;42.640;23.310;2022-09-17T15:14:15;3.03;;;1.70;;
11681;SDS011;5897;42.640;23.310;2022-09-17T15:16:46;5.10;;;1.80;;
11681;SDS011;5897;42.640;23.310;2022-09-17T15:19:18;3.05;;;1.80;;
11681;SDS011;5897;42.640;23.310;2022-09-17T15:21:48;3.28;;;1.90;;
11681;SDS011;5897;42.640;23.310;2022-09-17T15:24:21;4.57;;;2.05;;
11681;SDS011;5897;42.640;23.310;2022-09-17T15:26:57;2.63;;;1.40;;
11681;SDS011;5897;42.640;23.310;2022-09-17T15:29:28;3.05;;;2.10;;
11681;SDS011;5897;42.640;23.310;2022-09-17T15:32:01;2.60;;;1.70;;
11681;SDS011;5897;42.640;23.310;2022-09-17T15:34:30;3.58;;;2.05;;
11681;SDS011;5897;42.640;23.310;2022-09-17T15:37:03;3.92;;;1.90;;
11681;SDS011;5897;42.640;23.310;2022-09-17T15:39:36;3.75;;;2.00;;
11681;SDS011;5897;42.640;23.310;2022-09-17T15:42:05;6.15;;;2.22;;
11681;SDS011;5897;42.640;23.310;2022-09-17T15:44:43;5.13;;;2.15;;
11681;SDS011;5897;42.640;23.310;2022-09-17T15:50:14;2.72;;;1.70;;
11681;SDS011;5897;42.640;23.310;2022-09-17T15:52:43;3.65;;;1.70;;
11681;SDS011;5897;42.640;23.310;2022-09-17T15:55:28;3.05;;;1.90;;
11681;SDS011;5897;42.640;23.310;2022-09-17T15:57:56;2.60;;;1.60;;
11681;SDS011;5897;42.640;23.310;2022-09-17T16:00:24;3.55;;;1.55;;
11681;SDS011;5897;42.640;23.310;2022-09-17T16:02:51;4.13;;;1.63;;
11681;SDS011;5897;42.640;23.310;2022-09-17T16:11:00;3.42;;;1.65;;
11681;SDS011;5897;42.640;23.310;2022-09-17T16:13:27;1.95;;;1.55;;
11681;SDS011;5897;42.640;23.310;2022-09-17T16:15:53;2.67;;;2.08;;